sensor_id;sensor_type;location;lat;lon;timestamp;P1;durP1;ratioP1;P2;durP2;ratioP2
52708;SDS011;38606;52.986;6.980;2023-11-19T00:00:33;54.90;;;21.95;;
52708;SDS011;38606;52.986;6.980;2023-11-19T00:02:59;53.92;;;20.67;;
52708;SDS011;38606;52.986;6.980;2023-11-19T00:05:24;56.13;;;20.75;;
52708;SDS011;38606;52.986;6.980;2023-11-19T00:07:50;40.83;;;17.13;;
52708;SDS011;38606;52.986;6.980;2023-11-19T00:10:16;44.45;;;17.75;;
52708;SDS011;38606;52.986;6.980;2023-11-19T00:12:46;39.10;;;16.30;;
52708;SDS011;38606;52.986;6.980;2023-11-19T00:15:13;36.47;;;16.60;;
52708;SDS011;38606;52.986;6.980;2023-11-19T00:17:40;40.97;;;16.58;;
52708;SDS011;38606;52.986;6.980;2023-11-19T00:20:19;37.83;;;16.85;;
52708;SDS011;38606;52.986;6.980;2023-11-19T00:22:46;44.75;;;17.17;;
52708;SDS011;38606;52.986;6.980;2023-11-19T00:25:15;46.92;;;18.23;;
52708;SDS011;38606;52.986;6.980;2023-11-19T00:27:42;45.47;;;19.08;;
52708;SDS011;38606;52.986;6.980;2023-11-19T00:30:09;49.35;;;18.17;;
52708;SDS011;38606;52.986;6.980;2023-11-19T00:32:36;36.95;;;17.33;;
52708;SDS011;38606;52.986;6.980;2023-11-19T00:35:03;46.95;;;17.65;;
52708;SDS011;38606;52.986;6.980;2023-11-19T00:37:30;39.35;;;17.05;;
52708;SDS011;38606;52.986;6.980;2023-11-19T00:39:55;43.25;;;16.88;;
52708;SDS011;38606;52.986;6.980;2023-11-19T00:42:21;35.88;;;15.20;;
52708;SDS011;38606;52.986;6.980;2023-11-19T00:44:49;36.38;;;16.00;;
52708;SDS011;38606;52.986;6.980;2023-11-19T00:47:15;36.55;;;16.42;;
52708;SDS011;38606;52.986;6.980;2023-11-19T00:49:41;36.30;;;16.55;;
52708;SDS011;38606;52.986;6.980;2023-11-19T00:52:08;38.38;;;16.90;;
52708;SDS011;38606;52.986;6.980;2023-11-19T00:54:33;44.17;;;17.92;;
52708;SDS011;38606;52.986;6.980;2023-11-19T00:56:59;44.97;;;19.23;;
52708;SDS011;38606;52.986;6.980;2023-11-19T00:59:26;48.63;;;20.63;;
52708;SDS011;38606;52.986;6.980;2023-11-19T01:01:53;59.70;;;22.45;;
52708;SDS011;38606;52.986;6.980;2023-11-19T01:04:19;56.85;;;23.10;;
52708;SDS011;38606;52.986;6.980;2023-11-19T01:06:45;57.47;;;22.77;;
52708;SDS011;38606;52.986;6.980;2023-11-19T01:09:11;61.60;;;22.80;;
52708;SDS011;38606;52.986;6.980;2023-11-19T01:11:36;61.67;;;24.02;;
52708;SDS011;38606;52.986;6.980;2023-11-19T01:14:02;64.90;;;23.45;;
52708;SDS011;38606;52.986;6.980;2023-11-19T01:16:28;65.93;;;25.45;;
52708;SDS011;38606;52.986;6.980;2023-11-19T01:18:54;63.17;;;24.77;;
52708;SDS011;38606;52.986;6.980;2023-11-19T01:21:19;64.43;;;24.90;;
52708;SDS011;38606;52.986;6.980;2023-11-19T01:23:47;64.43;;;23.98;;
52708;SDS011;38606;52.986;6.980;2023-11-19T01:26:12;83.25;;;27.75;;
52708;SDS011;38606;52.986;6.980;2023-11-19T01:28:41;70.20;;;26.08;;
52708;SDS011;38606;52.986;6.980;2023-11-19T01:31:10;81.20;;;27.13;;
52708;SDS011;38606;52.986;6.980;2023-11-19T01:33:38;75.55;;;26.02;;
52708;SDS011;38606;52.986;6.980;2023-11-19T01:36:05;66.75;;;26.40;;
52708;SDS011;38606;52.986;6.980;2023-11-19T01:38:31;65.57;;;25.08;;
52708;SDS011;38606;52.986;6.980;2023-11-19T01:40:56;75.13;;;24.20;;
52708;SDS011;38606;52.986;6.980;2023-11-19T01:45:59;71.72;;;25.02;;
52708;SDS011;38606;52.986;6.980;2023-11-19T01:48:25;71.75;;;25.20;;
52708;SDS011;38606;52.986;6.980;2023-11-19T01:50:51;70.22;;;22.98;;
52708;SDS011;38606;52.986;6.980;2023-11-19T01:53:18;59.72;;;21.80;;
52708;SDS011;38606;52.986;6.980;2023-11-19T01:55:46;59.15;;;20.38;;
52708;SDS011;38606;52.986;6.980;2023-11-19T01:58:12;63.38;;;22.05;;
52708;SDS011;38606;52.986;6.980;2023-11-19T02:00:39;66.50;;;20.00;;
52708;SDS011;38606;52.986;6.980;2023-11-19T02:03:05;69.10;;;20.40;;
52708;SDS011;38606;52.986;6.980;2023-11-19T02:05:33;54.72;;;18.95;;
52708;SDS011;38606;52.986;6.980;2023-11-19T02:07:59;61.78;;;18.10;;
52708;SDS011;38606;52.986;6.980;2023-11-19T02:10:26;54.08;;;16.40;;
52708;SDS011;38606;52.986;6.980;2023-11-19T02:12:52;53.63;;;14.82;;
52708;SDS011;38606;52.986;6.980;2023-11-19T02:15:17;49.95;;;16.05;;
52708;SDS011;38606;52.986;6.980;2023-11-19T02:17:49;60.33;;;14.30;;
52708;SDS011;38606;52.986;6.980;2023-11-19T02:20:15;51.40;;;11.57;;
52708;SDS011;38606;52.986;6.980;2023-11-19T02:22:41;50.78;;;11.80;;
52708;SDS011;38606;52.986;6.980;2023-11-19T02:25:07;43.92;;;9.45;;
52708;SDS011;38606;52.986;6.980;2023-11-19T02:27:53;42.88;;;8.15;;
52708;SDS011;38606;52.986;6.980;2023-11-19T02:30:22;36.47;;;7.32;;
52708;SDS011;38606;52.986;6.980;2023-11-19T02:33:00;49.22;;;7.53;;
52708;SDS011;38606;52.986;6.980;2023-11-19T02:35:30;41.83;;;6.97;;
52708;SDS011;38606;52.986;6.980;2023-11-19T02:37:57;33.75;;;6.43;;
52708;SDS011;38606;52.986;6.980;2023-11-19T02:40:24;47.28;;;7.32;;
52708;SDS011;38606;52.986;6.980;2023-11-19T02:42:51;36.97;;;6.40;;
52708;SDS011;38606;52.986;6.980;2023-11-19T02:45:17;50.10;;;6.32;;
52708;SDS011;38606;52.986;6.980;2023-11-19T02:47:43;40.47;;;5.60;;
52708;SDS011;38606;52.986;6.980;2023-11-19T02:50:12;46.33;;;5.43;;
52708;SDS011;38606;52.986;6.980;2023-11-19T02:52:41;34.80;;;5.72;;
52708;SDS011;38606;52.986;6.980;2023-11-19T02:55:08;45.03;;;6.07;;
52708;SDS011;38606;52.986;6.980;2023-11-19T02:57:37;53.90;;;5.53;;
52708;SDS011;38606;52.986;6.980;2023-11-19T03:00:16;31.92;;;5.25;;
52708;SDS011;38606;52.986;6.980;2023-11-19T03:02:42;40.88;;;5.90;;
52708;SDS011;38606;52.986;6.980;2023-11-19T03:05:13;47.80;;;5.55;;
52708;SDS011;38606;52.986;6.980;2023-11-19T03:07:42;34.55;;;4.93;;
52708;SDS011;38606;52.986;6.980;2023-11-19T03:10:09;41.83;;;5.25;;
52708;SDS011;38606;52.986;6.980;2023-11-19T03:12:38;37.60;;;5.22;;
52708;SDS011;38606;52.986;6.980;2023-11-19T03:15:05;41.65;;;5.95;;
52708;SDS011;38606;52.986;6.980;2023-11-19T03:17:32;36.55;;;5.15;;
52708;SDS011;38606;52.986;6.980;2023-11-19T03:19:59;43.88;;;6.05;;
52708;SDS011;38606;52.986;6.980;2023-11-19T03:22:26;38.00;;;6.10;;
52708;SDS011;38606;52.986;6.980;2023-11-19T03:24:52;48.05;;;7.28;;
52708;SDS011;38606;52.986;6.980;2023-11-19T03:27:17;49.45;;;5.93;;
52708;SDS011;38606;52.986;6.980;2023-11-19T03:29:43;37.95;;;5.35;;
52708;SDS011;38606;52.986;6.980;2023-11-19T03:32:09;49.83;;;6.30;;
52708;SDS011;38606;52.986;6.980;2023-11-19T03:34:34;37.00;;;5.53;;
52708;SDS011;38606;52.986;6.980;2023-11-19T03:37:00;45.92;;;5.97;;
52708;SDS011;38606;52.986;6.980;2023-11-19T03:39:26;44.40;;;5.68;;
52708;SDS011;38606;52.986;6.980;2023-11-19T03:41:52;43.83;;;5.68;;
52708;SDS011;38606;52.986;6.980;2023-11-19T03:44:17;38.05;;;5.13;;
52708;SDS011;38606;52.986;6.980;2023-11-19T03:46:44;43.55;;;5.97;;
52708;SDS011;38606;52.986;6.980;2023-11-19T03:49:11;40.33;;;6.40;;
52708;SDS011;38606;52.986;6.980;2023-11-19T03:51:37;33.80;;;5.28;;
52708;SDS011;38606;52.986;6.980;2023-11-19T03:54:03;46.00;;;6.30;;
52708;SDS011;38606;52.986;6.980;2023-11-19T03:56:28;40.45;;;5.90;;
52708;SDS011;38606;52.986;6.980;2023-11-19T03:58:56;42.15;;;5.60;;
52708;SDS011;38606;52.986;6.980;2023-11-19T04:01:21;43.60;;;6.95;;
52708;SDS011;38606;52.986;6.980;2023-11-19T04:03:47;37.28;;;6.30;;
52708;SDS011;38606;52.986;6.980;2023-11-19T04:06:13;46.47;;;6.57;;
52708;SDS011;38606;52.986;6.980;2023-11-19T04:08:39;36.70;;;5.35;;
52708;SDS011;38606;52.986;6.980;2023-11-19T04:11:05;43.92;;;6.15;;
52708;SDS011;38606;52.986;6.980;2023-11-19T04:13:30;40.13;;;5.88;;
52708;SDS011;38606;52.986;6.980;2023-11-19T04:15:56;45.10;;;5.95;;
52708;SDS011;38606;52.986;6.980;2023-11-19T04:18:22;41.05;;;5.80;;
52708;SDS011;38606;52.986;6.980;2023-11-19T04:20:48;43.47;;;6.50;;
52708;SDS011;38606;52.986;6.980;2023-11-19T04:23:14;36.20;;;5.63;;
52708;SDS011;38606;52.986;6.980;2023-11-19T04:25:41;38.35;;;5.03;;
52708;SDS011;38606;52.986;6.980;2023-11-19T04:28:06;43.50;;;6.40;;
52708;SDS011;38606;52.986;6.980;2023-11-19T04:30:33;43.53;;;5.25;;
52708;SDS011;38606;52.986;6.980;2023-11-19T04:33:00;45.95;;;6.82;;
52708;SDS011;38606;52.986;6.980;2023-11-19T04:35:26;40.75;;;6.13;;
52708;SDS011;38606;52.986;6.980;2023-11-19T04:37:51;47.50;;;6.13;;
52708;SDS011;38606;52.986;6.980;2023-11-19T04:40:17;45.33;;;6.13;;
52708;SDS011;38606;52.986;6.980;2023-11-19T04:42:43;44.40;;;6.15;;
52708;SDS011;38606;52.986;6.980;2023-11-19T04:45:09;40.65;;;5.68;;
52708;SDS011;38606;52.986;6.980;2023-11-19T04:47:35;48.28;;;6.93;;
52708;SDS011;38606;52.986;6.980;2023-11-19T04:50:02;50.88;;;6.38;;
52708;SDS011;38606;52.986;6.980;2023-11-19T04:52:28;43.92;;;6.10;;
52708;SDS011;38606;52.986;6.980;2023-11-19T04:54:54;46.13;;;6.28;;
52708;SDS011;38606;52.986;6.980;2023-11-19T04:57:20;45.45;;;6.82;;
52708;SDS011;38606;52.986;6.980;2023-11-19T04:59:45;40.67;;;5.90;;
52708;SDS011;38606;52.986;6.980;2023-11-19T05:02:11;45.85;;;5.38;;
52708;SDS011;38606;52.986;6.980;2023-11-19T05:04:41;50.58;;;7.00;;
52708;SDS011;38606;52.986;6.980;2023-11-19T05:07:09;45.53;;;5.63;;
52708;SDS011;38606;52.986;6.980;2023-11-19T05:09:34;50.25;;;6.47;;
52708;SDS011;38606;52.986;6.980;2023-11-19T05:12:00;50.47;;;6.50;;
52708;SDS011;38606;52.986;6.980;2023-11-19T05:14:26;45.05;;;6.38;;
52708;SDS011;38606;52.986;6.980;2023-11-19T05:16:53;55.60;;;6.97;;
52708;SDS011;38606;52.986;6.980;2023-11-19T05:19:18;44.38;;;6.40;;
52708;SDS011;38606;52.986;6.980;2023-11-19T05:21:44;45.72;;;6.15;;
52708;SDS011;38606;52.986;6.980;2023-11-19T05:24:10;47.47;;;7.40;;
52708;SDS011;38606;52.986;6.980;2023-11-19T05:26:39;51.53;;;6.50;;
52708;SDS011;38606;52.986;6.980;2023-11-19T05:29:05;55.58;;;7.57;;
52708;SDS011;38606;52.986;6.980;2023-11-19T05:31:31;47.40;;;6.70;;
52708;SDS011;38606;52.986;6.980;2023-11-19T05:33:57;44.13;;;6.40;;
52708;SDS011;38606;52.986;6.980;2023-11-19T05:36:22;47.75;;;6.82;;
52708;SDS011;38606;52.986;6.980;2023-11-19T05:38:48;49.53;;;5.85;;
52708;SDS011;38606;52.986;6.980;2023-11-19T05:41:14;45.25;;;6.40;;
52708;SDS011;38606;52.986;6.980;2023-11-19T05:43:40;48.78;;;6.22;;
52708;SDS011;38606;52.986;6.980;2023-11-19T05:46:06;53.72;;;6.40;;
52708;SDS011;38606;52.986;6.980;2023-11-19T05:48:32;52.67;;;6.53;;
52708;SDS011;38606;52.986;6.980;2023-11-19T05:50:58;48.72;;;7.35;;
52708;SDS011;38606;52.986;6.980;2023-11-19T05:53:24;42.88;;;6.80;;
52708;SDS011;38606;52.986;6.980;2023-11-19T05:55:50;45.70;;;6.95;;
52708;SDS011;38606;52.986;6.980;2023-11-19T05:58:27;43.10;;;5.55;;
52708;SDS011;38606;52.986;6.980;2023-11-19T06:03:20;49.70;;;6.55;;
52708;SDS011;38606;52.986;6.980;2023-11-19T06:05:46;39.80;;;6.18;;
52708;SDS011;38606;52.986;6.980;2023-11-19T06:08:13;50.95;;;6.82;;
52708;SDS011;38606;52.986;6.980;2023-11-19T06:10:43;50.88;;;6.15;;
52708;SDS011;38606;52.986;6.980;2023-11-19T06:13:11;51.83;;;6.40;;
52708;SDS011;38606;52.986;6.980;2023-11-19T06:15:37;38.10;;;6.50;;
52708;SDS011;38606;52.986;6.980;2023-11-19T06:18:03;50.15;;;7.45;;
52708;SDS011;38606;52.986;6.980;2023-11-19T06:20:29;42.42;;;6.22;;
52708;SDS011;38606;52.986;6.980;2023-11-19T06:22:56;51.05;;;7.45;;
52708;SDS011;38606;52.986;6.980;2023-11-19T06:25:23;48.38;;;6.35;;
52708;SDS011;38606;52.986;6.980;2023-11-19T06:27:49;45.72;;;6.32;;
52708;SDS011;38606;52.986;6.980;2023-11-19T06:30:15;51.90;;;6.82;;
52708;SDS011;38606;52.986;6.980;2023-11-19T06:32:41;43.35;;;6.00;;
52708;SDS011;38606;52.986;6.980;2023-11-19T06:35:07;46.00;;;6.70;;
52708;SDS011;38606;52.986;6.980;2023-11-19T06:37:34;50.80;;;6.38;;
52708;SDS011;38606;52.986;6.980;2023-11-19T06:40:07;63.77;;;7.93;;
52708;SDS011;38606;52.986;6.980;2023-11-19T06:42:34;51.00;;;7.75;;
52708;SDS011;38606;52.986;6.980;2023-11-19T06:45:00;54.83;;;8.50;;
52708;SDS011;38606;52.986;6.980;2023-11-19T06:47:27;48.95;;;6.40;;
52708;SDS011;38606;52.986;6.980;2023-11-19T06:49:53;50.92;;;6.72;;
52708;SDS011;38606;52.986;6.980;2023-11-19T06:52:19;53.85;;;7.05;;
52708;SDS011;38606;52.986;6.980;2023-11-19T06:54:45;47.97;;;6.47;;
52708;SDS011;38606;52.986;6.980;2023-11-19T06:57:12;45.78;;;6.25;;
52708;SDS011;38606;52.986;6.980;2023-11-19T06:59:38;46.08;;;7.82;;
52708;SDS011;38606;52.986;6.980;2023-11-19T07:02:04;48.30;;;6.38;;
52708;SDS011;38606;52.986;6.980;2023-11-19T07:04:30;41.90;;;6.93;;
52708;SDS011;38606;52.986;6.980;2023-11-19T07:06:56;41.45;;;7.38;;
52708;SDS011;38606;52.986;6.980;2023-11-19T07:09:22;48.88;;;6.40;;
52708;SDS011;38606;52.986;6.980;2023-11-19T07:11:48;51.70;;;6.53;;
52708;SDS011;38606;52.986;6.980;2023-11-19T07:14:16;49.17;;;6.47;;
52708;SDS011;38606;52.986;6.980;2023-11-19T07:16:43;47.10;;;5.95;;
52708;SDS011;38606;52.986;6.980;2023-11-19T07:19:09;57.80;;;6.90;;
52708;SDS011;38606;52.986;6.980;2023-11-19T07:21:35;37.58;;;5.60;;
52708;SDS011;38606;52.986;6.980;2023-11-19T07:24:04;42.85;;;6.32;;
52708;SDS011;38606;52.986;6.980;2023-11-19T07:26:31;41.80;;;6.55;;
52708;SDS011;38606;52.986;6.980;2023-11-19T07:28:57;50.00;;;7.00;;
52708;SDS011;38606;52.986;6.980;2023-11-19T07:31:23;41.45;;;6.32;;
52708;SDS011;38606;52.986;6.980;2023-11-19T07:33:49;42.78;;;6.90;;
52708;SDS011;38606;52.986;6.980;2023-11-19T07:36:15;42.53;;;6.78;;
52708;SDS011;38606;52.986;6.980;2023-11-19T07:38:41;47.28;;;6.53;;
52708;SDS011;38606;52.986;6.980;2023-11-19T07:41:07;49.25;;;6.18;;
52708;SDS011;38606;52.986;6.980;2023-11-19T07:43:42;44.40;;;6.72;;
52708;SDS011;38606;52.986;6.980;2023-11-19T07:46:12;51.22;;;7.18;;
52708;SDS011;38606;52.986;6.980;2023-11-19T07:48:42;55.97;;;6.60;;
52708;SDS011;38606;52.986;6.980;2023-11-19T07:51:07;52.83;;;7.03;;
52708;SDS011;38606;52.986;6.980;2023-11-19T07:53:33;58.28;;;7.03;;
52708;SDS011;38606;52.986;6.980;2023-11-19T07:56:00;53.47;;;5.82;;
52708;SDS011;38606;52.986;6.980;2023-11-19T07:58:26;55.95;;;6.72;;
52708;SDS011;38606;52.986;6.980;2023-11-19T08:00:52;49.35;;;6.43;;
52708;SDS011;38606;52.986;6.980;2023-11-19T08:03:17;46.58;;;6.18;;
52708;SDS011;38606;52.986;6.980;2023-11-19T08:05:49;40.88;;;5.55;;
52708;SDS011;38606;52.986;6.980;2023-11-19T08:08:18;50.42;;;6.68;;
52708;SDS011;38606;52.986;6.980;2023-11-19T08:10:44;46.40;;;7.38;;
52708;SDS011;38606;52.986;6.980;2023-11-19T08:13:11;47.78;;;7.10;;
52708;SDS011;38606;52.986;6.980;2023-11-19T08:15:37;44.90;;;6.30;;
52708;SDS011;38606;52.986;6.980;2023-11-19T08:18:02;49.85;;;6.68;;
52708;SDS011;38606;52.986;6.980;2023-11-19T08:20:28;55.47;;;6.68;;
52708;SDS011;38606;52.986;6.980;2023-11-19T08:22:54;51.75;;;6.97;;
52708;SDS011;38606;52.986;6.980;2023-11-19T08:25:20;52.35;;;6.93;;
52708;SDS011;38606;52.986;6.980;2023-11-19T08:27:45;55.15;;;7.07;;
52708;SDS011;38606;52.986;6.980;2023-11-19T08:30:12;52.28;;;7.32;;
52708;SDS011;38606;52.986;6.980;2023-11-19T08:32:38;52.25;;;6.13;;
52708;SDS011;38606;52.986;6.980;2023-11-19T08:35:04;48.03;;;7.18;;
52708;SDS011;38606;52.986;6.980;2023-11-19T08:37:30;45.88;;;6.38;;
52708;SDS011;38606;52.986;6.980;2023-11-19T08:39:56;48.65;;;6.43;;
52708;SDS011;38606;52.986;6.980;2023-11-19T08:42:22;58.20;;;6.68;;
52708;SDS011;38606;52.986;6.980;2023-11-19T08:44:50;49.63;;;7.32;;
52708;SDS011;38606;52.986;6.980;2023-11-19T08:47:19;41.67;;;5.72;;
52708;SDS011;38606;52.986;6.980;2023-11-19T08:49:45;52.25;;;7.75;;
52708;SDS011;38606;52.986;6.980;2023-11-19T08:52:11;57.30;;;7.13;;
52708;SDS011;38606;52.986;6.980;2023-11-19T08:54:37;48.97;;;7.25;;
52708;SDS011;38606;52.986;6.980;2023-11-19T08:57:03;50.50;;;6.90;;
52708;SDS011;38606;52.986;6.980;2023-11-19T08:59:29;61.38;;;7.57;;
52708;SDS011;38606;52.986;6.980;2023-11-19T09:01:55;51.53;;;7.32;;
52708;SDS011;38606;52.986;6.980;2023-11-19T09:04:21;50.70;;;7.15;;
52708;SDS011;38606;52.986;6.980;2023-11-19T09:06:50;52.33;;;6.80;;
52708;SDS011;38606;52.986;6.980;2023-11-19T09:09:16;49.50;;;8.15;;
52708;SDS011;38606;52.986;6.980;2023-11-19T09:11:41;42.97;;;6.20;;
52708;SDS011;38606;52.986;6.980;2023-11-19T09:14:07;53.53;;;6.75;;
52708;SDS011;38606;52.986;6.980;2023-11-19T09:16:33;55.72;;;6.63;;
52708;SDS011;38606;52.986;6.980;2023-11-19T09:18:59;44.58;;;6.40;;
52708;SDS011;38606;52.986;6.980;2023-11-19T09:21:25;52.17;;;6.90;;
52708;SDS011;38606;52.986;6.980;2023-11-19T09:23:51;54.00;;;6.80;;
52708;SDS011;38606;52.986;6.980;2023-11-19T09:26:19;41.78;;;5.53;;
52708;SDS011;38606;52.986;6.980;2023-11-19T09:28:44;52.13;;;7.10;;
52708;SDS011;38606;52.986;6.980;2023-11-19T09:31:14;44.22;;;5.72;;
52708;SDS011;38606;52.986;6.980;2023-11-19T09:33:40;51.22;;;6.38;;
52708;SDS011;38606;52.986;6.980;2023-11-19T09:36:06;43.53;;;6.07;;
52708;SDS011;38606;52.986;6.980;2023-11-19T09:38:32;53.35;;;6.72;;
52708;SDS011;38606;52.986;6.980;2023-11-19T09:40:58;49.53;;;6.85;;
52708;SDS011;38606;52.986;6.980;2023-11-19T09:43:33;51.65;;;5.80;;
52708;SDS011;38606;52.986;6.980;2023-11-19T09:45:59;49.58;;;6.78;;
52708;SDS011;38606;52.986;6.980;2023-11-19T09:48:32;56.55;;;7.03;;
52708;SDS011;38606;52.986;6.980;2023-11-19T09:51:05;47.35;;;6.30;;
52708;SDS011;38606;52.986;6.980;2023-11-19T09:53:31;46.17;;;6.68;;
52708;SDS011;38606;52.986;6.980;2023-11-19T09:56:01;47.50;;;6.85;;
52708;SDS011;38606;52.986;6.980;2023-11-19T09:58:31;37.30;;;6.32;;
52708;SDS011;38606;52.986;6.980;2023-11-19T10:00:58;50.50;;;6.30;;
52708;SDS011;38606;52.986;6.980;2023-11-19T10:03:30;56.08;;;6.88;;
52708;SDS011;38606;52.986;6.980;2023-11-19T10:06:03;47.85;;;7.28;;
52708;SDS011;38606;52.986;6.980;2023-11-19T10:08:29;56.03;;;7.45;;
52708;SDS011;38606;52.986;6.980;2023-11-19T10:10:55;52.40;;;6.82;;
52708;SDS011;38606;52.986;6.980;2023-11-19T10:13:25;44.40;;;6.15;;
52708;SDS011;38606;52.986;6.980;2023-11-19T10:15:52;53.15;;;7.00;;
52708;SDS011;38606;52.986;6.980;2023-11-19T10:18:18;45.58;;;7.05;;
52708;SDS011;38606;52.986;6.980;2023-11-19T10:20:48;41.05;;;5.32;;
52708;SDS011;38606;52.986;6.980;2023-11-19T10:23:14;44.78;;;6.18;;
52708;SDS011;38606;52.986;6.980;2023-11-19T10:25:40;45.28;;;5.80;;
52708;SDS011;38606;52.986;6.980;2023-11-19T10:28:06;41.25;;;6.03;;
52708;SDS011;38606;52.986;6.980;2023-11-19T10:30:31;52.30;;;7.80;;
52708;SDS011;38606;52.986;6.980;2023-11-19T10:33:09;54.47;;;7.05;;
52708;SDS011;38606;52.986;6.980;2023-11-19T10:38:22;48.38;;;6.75;;
52708;SDS011;38606;52.986;6.980;2023-11-19T10:40:49;42.83;;;5.53;;
52708;SDS011;38606;52.986;6.980;2023-11-19T10:43:16;54.83;;;6.78;;
52708;SDS011;38606;52.986;6.980;2023-11-19T10:45:42;46.28;;;5.97;;
52708;SDS011;38606;52.986;6.980;2023-11-19T10:48:09;41.65;;;6.10;;
52708;SDS011;38606;52.986;6.980;2023-11-19T10:50:36;37.92;;;5.00;;
52708;SDS011;38606;52.986;6.980;2023-11-19T10:53:03;45.83;;;7.50;;
52708;SDS011;38606;52.986;6.980;2023-11-19T10:55:30;51.47;;;6.13;;
52708;SDS011;38606;52.986;6.980;2023-11-19T10:58:00;47.58;;;5.65;;
52708;SDS011;38606;52.986;6.980;2023-11-19T11:00:29;34.60;;;4.90;;
52708;SDS011;38606;52.986;6.980;2023-11-19T11:03:01;37.88;;;5.47;;
52708;SDS011;38606;52.986;6.980;2023-11-19T11:05:33;34.60;;;4.38;;
52708;SDS011;38606;52.986;6.980;2023-11-19T11:08:00;29.45;;;4.05;;
52708;SDS011;38606;52.986;6.980;2023-11-19T11:10:26;44.15;;;5.07;;
52708;SDS011;38606;52.986;6.980;2023-11-19T11:12:58;41.13;;;4.43;;
52708;SDS011;38606;52.986;6.980;2023-11-19T11:15:27;34.70;;;4.32;;
52708;SDS011;38606;52.986;6.980;2023-11-19T11:17:59;42.78;;;5.93;;
52708;SDS011;38606;52.986;6.980;2023-11-19T11:20:29;47.45;;;5.68;;
52708;SDS011;38606;52.986;6.980;2023-11-19T11:31:39;57.22;;;7.90;;
52708;SDS011;38606;52.986;6.980;2023-11-19T11:34:58;59.67;;;6.30;;
52708;SDS011;38606;52.986;6.980;2023-11-19T11:37:21;45.30;;;5.72;;
52708;SDS011;38606;52.986;6.980;2023-11-19T11:39:57;54.92;;;7.30;;
52708;SDS011;38606;52.986;6.980;2023-11-19T11:45:05;40.80;;;4.80;;
52708;SDS011;38606;52.986;6.980;2023-11-19T11:50:19;36.03;;;4.35;;
52708;SDS011;38606;52.986;6.980;2023-11-19T11:55:37;42.10;;;5.65;;
52708;SDS011;38606;52.986;6.980;2023-11-19T11:58:30;37.80;;;4.63;;
52708;SDS011;38606;52.986;6.980;2023-11-19T12:00:57;45.35;;;5.75;;
52708;SDS011;38606;52.986;6.980;2023-11-19T12:03:26;42.30;;;5.57;;
52708;SDS011;38606;52.986;6.980;2023-11-19T12:05:53;44.72;;;5.72;;
52708;SDS011;38606;52.986;6.980;2023-11-19T12:08:19;44.95;;;5.80;;
52708;SDS011;38606;52.986;6.980;2023-11-19T12:10:50;53.72;;;6.50;;
52708;SDS011;38606;52.986;6.980;2023-11-19T12:13:17;53.00;;;6.38;;
52708;SDS011;38606;52.986;6.980;2023-11-19T12:16:29;43.33;;;6.13;;
52708;SDS011;38606;52.986;6.980;2023-11-19T12:18:30;43.72;;;6.20;;
52708;SDS011;38606;52.986;6.980;2023-11-19T12:20:57;42.15;;;6.00;;
52708;SDS011;38606;52.986;6.980;2023-11-19T12:23:29;36.17;;;5.18;;
52708;SDS011;38606;52.986;6.980;2023-11-19T12:25:55;46.78;;;6.22;;
52708;SDS011;38606;52.986;6.980;2023-11-19T12:28:24;38.22;;;5.10;;
52708;SDS011;38606;52.986;6.980;2023-11-19T12:30:53;39.30;;;5.88;;
52708;SDS011;38606;52.986;6.980;2023-11-19T12:33:32;41.53;;;5.00;;
52708;SDS011;38606;52.986;6.980;2023-11-19T12:35:57;41.15;;;5.50;;
52708;SDS011;38606;52.986;6.980;2023-11-19T12:38:25;37.58;;;4.15;;
52708;SDS011;38606;52.986;6.980;2023-11-19T12:41:07;43.83;;;5.22;;
52708;SDS011;38606;52.986;6.980;2023-11-19T12:43:36;45.78;;;5.63;;
52708;SDS011;38606;52.986;6.980;2023-11-19T12:46:24;41.97;;;5.45;;
52708;SDS011;38606;52.986;6.980;2023-11-19T12:48:49;42.20;;;4.40;;
52708;SDS011;38606;52.986;6.980;2023-11-19T12:51:15;44.25;;;6.43;;
52708;SDS011;38606;52.986;6.980;2023-11-19T12:53:51;37.55;;;6.05;;
52708;SDS011;38606;52.986;6.980;2023-11-19T12:56:22;45.75;;;5.82;;
52708;SDS011;38606;52.986;6.980;2023-11-19T12:58:49;41.65;;;5.72;;
52708;SDS011;38606;52.986;6.980;2023-11-19T13:01:16;39.25;;;4.97;;
52708;SDS011;38606;52.986;6.980;2023-11-19T13:03:43;34.42;;;5.28;;
52708;SDS011;38606;52.986;6.980;2023-11-19T13:06:10;38.83;;;5.45;;
52708;SDS011;38606;52.986;6.980;2023-11-19T13:08:38;28.02;;;3.97;;
52708;SDS011;38606;52.986;6.980;2023-11-19T13:11:05;34.92;;;4.55;;
52708;SDS011;38606;52.986;6.980;2023-11-19T13:13:32;25.00;;;3.97;;
52708;SDS011;38606;52.986;6.980;2023-11-19T13:16:15;34.97;;;4.63;;
52708;SDS011;38606;52.986;6.980;2023-11-19T13:18:40;29.35;;;4.10;;
52708;SDS011;38606;52.986;6.980;2023-11-19T13:21:06;27.73;;;4.78;;
52708;SDS011;38606;52.986;6.980;2023-11-19T13:23:32;32.22;;;4.75;;
52708;SDS011;38606;52.986;6.980;2023-11-19T13:25:58;26.88;;;4.53;;
52708;SDS011;38606;52.986;6.980;2023-11-19T13:28:23;33.15;;;4.28;;
52708;SDS011;38606;52.986;6.980;2023-11-19T13:30:51;33.33;;;4.60;;
52708;SDS011;38606;52.986;6.980;2023-11-19T13:33:16;36.83;;;6.05;;
52708;SDS011;38606;52.986;6.980;2023-11-19T13:35:42;35.72;;;5.57;;
52708;SDS011;38606;52.986;6.980;2023-11-19T13:38:08;36.22;;;5.07;;
52708;SDS011;38606;52.986;6.980;2023-11-19T13:40:34;34.58;;;5.07;;
52708;SDS011;38606;52.986;6.980;2023-11-19T13:43:00;39.58;;;4.90;;
52708;SDS011;38606;52.986;6.980;2023-11-19T13:45:26;31.35;;;4.82;;
52708;SDS011;38606;52.986;6.980;2023-11-19T13:47:51;37.05;;;5.20;;
52708;SDS011;38606;52.986;6.980;2023-11-19T13:50:17;42.25;;;5.68;;
52708;SDS011;38606;52.986;6.980;2023-11-19T13:52:44;39.70;;;5.72;;
52708;SDS011;38606;52.986;6.980;2023-11-19T13:55:12;41.63;;;5.60;;
52708;SDS011;38606;52.986;6.980;2023-11-19T13:57:39;47.00;;;5.88;;
52708;SDS011;38606;52.986;6.980;2023-11-19T14:00:08;49.30;;;5.35;;
52708;SDS011;38606;52.986;6.980;2023-11-19T14:02:39;39.00;;;5.72;;
52708;SDS011;38606;52.986;6.980;2023-11-19T14:05:06;45.70;;;4.90;;
52708;SDS011;38606;52.986;6.980;2023-11-19T14:07:32;40.67;;;4.90;;
52708;SDS011;38606;52.986;6.980;2023-11-19T14:09:58;36.80;;;5.32;;
52708;SDS011;38606;52.986;6.980;2023-11-19T14:12:24;42.50;;;5.57;;
52708;SDS011;38606;52.986;6.980;2023-11-19T14:14:50;44.65;;;4.82;;
52708;SDS011;38606;52.986;6.980;2023-11-19T14:17:15;42.63;;;5.68;;
52708;SDS011;38606;52.986;6.980;2023-11-19T14:19:42;46.28;;;5.20;;
52708;SDS011;38606;52.986;6.980;2023-11-19T14:22:08;40.15;;;5.53;;
52708;SDS011;38606;52.986;6.980;2023-11-19T14:24:34;44.80;;;5.50;;
52708;SDS011;38606;52.986;6.980;2023-11-19T14:27:00;46.17;;;5.95;;
52708;SDS011;38606;52.986;6.980;2023-11-19T14:29:26;39.17;;;4.53;;
52708;SDS011;38606;52.986;6.980;2023-11-19T14:31:53;34.95;;;5.03;;
52708;SDS011;38606;52.986;6.980;2023-11-19T14:34:19;36.13;;;4.53;;
52708;SDS011;38606;52.986;6.980;2023-11-19T14:36:45;39.03;;;5.10;;
52708;SDS011;38606;52.986;6.980;2023-11-19T14:39:11;44.35;;;5.82;;
52708;SDS011;38606;52.986;6.980;2023-11-19T14:41:37;49.10;;;5.03;;
52708;SDS011;38606;52.986;6.980;2023-11-19T14:44:02;36.97;;;4.80;;
52708;SDS011;38606;52.986;6.980;2023-11-19T14:46:28;36.58;;;4.13;;
52708;SDS011;38606;52.986;6.980;2023-11-19T14:48:54;43.42;;;5.90;;
52708;SDS011;38606;52.986;6.980;2023-11-19T14:51:20;38.22;;;5.13;;
52708;SDS011;38606;52.986;6.980;2023-11-19T14:53:46;33.05;;;4.22;;
52708;SDS011;38606;52.986;6.980;2023-11-19T14:56:12;34.42;;;5.28;;
52708;SDS011;38606;52.986;6.980;2023-11-19T14:58:38;32.00;;;4.38;;